sensor_id;sensor_type;location;lat;lon;timestamp;P1;durP1;ratioP1;P2;durP2;ratioP2
58992;SDS011;44782;0.000;0.000;2024-03-23T00:54:36;3.90;;;1.70;;
58992;SDS011;44782;0.000;0.000;2024-03-23T00:56:51;3.00;;;1.80;;
58992;SDS011;44782;0.000;0.000;2024-03-23T00:59:08;1.80;;;1.50;;
58992;SDS011;44782;0.000;0.000;2024-03-23T01:01:23;2.13;;;1.40;;
58992;SDS011;44782;0.000;0.000;2024-03-23T01:03:39;2.07;;;1.67;;
58992;SDS011;44782;0.000;0.000;2024-03-23T01:05:54;1.97;;;1.60;;
58992;SDS011;44782;0.000;0.000;2024-03-23T01:08:17;2.43;;;1.70;;
58992;SDS011;44782;0.000;0.000;2024-03-23T01:10:32;3.13;;;1.80;;
58992;SDS011;44782;0.000;0.000;2024-03-23T01:12:48;2.73;;;1.80;;
58992;SDS011;44782;0.000;0.000;2024-03-23T01:15:04;2.43;;;1.70;;
58992;SDS011;44782;0.000;0.000;2024-03-23T01:17:20;2.70;;;1.77;;
58992;SDS011;44782;0.000;0.000;2024-03-23T01:19:35;2.00;;;1.60;;
58992;SDS011;44782;0.000;0.000;2024-03-23T01:21:51;2.53;;;1.60;;
58992;SDS011;44782;0.000;0.000;2024-03-23T01:24:06;2.90;;;1.80;;
58992;SDS011;44782;0.000;0.000;2024-03-23T01:26:25;1.90;;;1.60;;
58992;SDS011;44782;0.000;0.000;2024-03-23T01:28:41;2.47;;;1.77;;
58992;SDS011;44782;0.000;0.000;2024-03-23T01:30:56;3.17;;;1.90;;
58992;SDS011;44782;0.000;0.000;2024-03-23T01:33:12;1.57;;;1.43;;
58992;SDS011;44782;0.000;0.000;2024-03-23T01:35:27;2.27;;;1.70;;
58992;SDS011;44782;0.000;0.000;2024-03-23T01:37:43;2.23;;;1.63;;
58992;SDS011;44782;0.000;0.000;2024-03-23T01:39:59;2.20;;;1.60;;
58992;SDS011;44782;0.000;0.000;2024-03-23T01:42:15;2.17;;;1.90;;
58992;SDS011;44782;0.000;0.000;2024-03-23T01:44:30;2.70;;;1.80;;
58992;SDS011;44782;0.000;0.000;2024-03-23T01:46:46;2.63;;;1.80;;
58992;SDS011;44782;0.000;0.000;2024-03-23T01:49:02;1.87;;;1.47;;
58992;SDS011;44782;0.000;0.000;2024-03-23T01:51:18;2.67;;;1.60;;
58992;SDS011;44782;0.000;0.000;2024-03-23T01:53:34;2.17;;;1.60;;
58992;SDS011;44782;0.000;0.000;2024-03-23T01:55:50;3.27;;;1.77;;
58992;SDS011;44782;0.000;0.000;2024-03-23T01:58:06;2.10;;;1.80;;
58992;SDS011;44782;0.000;0.000;2024-03-23T02:00:22;2.63;;;1.70;;
58992;SDS011;44782;0.000;0.000;2024-03-23T02:02:44;2.60;;;1.80;;
58992;SDS011;44782;0.000;0.000;2024-03-23T02:05:00;2.10;;;1.70;;
58992;SDS011;44782;0.000;0.000;2024-03-23T02:09:42;2.30;;;1.77;;
58992;SDS011;44782;0.000;0.000;2024-03-23T02:11:58;3.50;;;1.80;;
58992;SDS011;44782;0.000;0.000;2024-03-23T02:14:16;2.63;;;1.83;;
58992;SDS011;44782;0.000;0.000;2024-03-23T02:16:32;2.93;;;1.60;;
58992;SDS011;44782;0.000;0.000;2024-03-23T02:18:48;2.47;;;1.70;;
58992;SDS011;44782;0.000;0.000;2024-03-23T02:21:03;2.43;;;2.00;;
58992;SDS011;44782;0.000;0.000;2024-03-23T02:23:19;2.00;;;1.73;;
58992;SDS011;44782;0.000;0.000;2024-03-23T02:25:35;2.27;;;1.70;;
58992;SDS011;44782;0.000;0.000;2024-03-23T02:27:50;4.03;;;1.93;;
58992;SDS011;44782;0.000;0.000;2024-03-23T02:30:08;2.33;;;1.80;;
58992;SDS011;44782;0.000;0.000;2024-03-23T02:34:42;2.50;;;1.90;;
58992;SDS011;44782;0.000;0.000;2024-03-23T02:36:57;2.80;;;1.80;;
58992;SDS011;44782;0.000;0.000;2024-03-23T02:39:13;2.37;;;1.60;;
58992;SDS011;44782;0.000;0.000;2024-03-23T02:41:28;2.47;;;1.80;;
58992;SDS011;44782;0.000;0.000;2024-03-23T02:43:44;2.50;;;1.87;;
58992;SDS011;44782;0.000;0.000;2024-03-23T02:45:59;2.53;;;2.00;;
58992;SDS011;44782;0.000;0.000;2024-03-23T02:48:16;2.47;;;1.77;;
58992;SDS011;44782;0.000;0.000;2024-03-23T02:50:31;3.30;;;1.83;;
58992;SDS011;44782;0.000;0.000;2024-03-23T02:52:47;3.07;;;1.97;;
58992;SDS011;44782;0.000;0.000;2024-03-23T02:55:03;1.90;;;1.70;;
58992;SDS011;44782;0.000;0.000;2024-03-23T02:57:20;1.80;;;1.60;;
58992;SDS011;44782;0.000;0.000;2024-03-23T02:59:35;2.37;;;1.67;;
58992;SDS011;44782;0.000;0.000;2024-03-23T03:01:51;2.97;;;1.70;;
58992;SDS011;44782;0.000;0.000;2024-03-23T03:04:06;2.50;;;1.80;;
58992;SDS011;44782;0.000;0.000;2024-03-23T03:06:23;2.57;;;1.70;;
58992;SDS011;44782;0.000;0.000;2024-03-23T03:08:39;2.03;;;1.70;;
58992;SDS011;44782;0.000;0.000;2024-03-23T03:10:55;2.93;;;1.83;;
58992;SDS011;44782;0.000;0.000;2024-03-23T03:13:11;2.67;;;1.87;;
58992;SDS011;44782;0.000;0.000;2024-03-23T03:15:26;3.60;;;1.70;;
58992;SDS011;44782;0.000;0.000;2024-03-23T03:17:42;2.53;;;1.60;;
58992;SDS011;44782;0.000;0.000;2024-03-23T03:19:58;2.90;;;1.77;;
58992;SDS011;44782;0.000;0.000;2024-03-23T03:22:13;3.10;;;1.90;;
58992;SDS011;44782;0.000;0.000;2024-03-23T03:24:29;2.60;;;1.77;;
58992;SDS011;44782;0.000;0.000;2024-03-23T03:26:45;3.33;;;1.80;;
58992;SDS011;44782;0.000;0.000;2024-03-23T03:29:00;2.07;;;1.40;;
58992;SDS011;44782;0.000;0.000;2024-03-23T03:31:17;2.30;;;1.87;;
58992;SDS011;44782;0.000;0.000;2024-03-23T03:33:33;2.23;;;1.53;;
58992;SDS011;44782;0.000;0.000;2024-03-23T03:35:49;3.40;;;2.10;;
58992;SDS011;44782;0.000;0.000;2024-03-23T03:38:04;3.00;;;1.53;;
58992;SDS011;44782;0.000;0.000;2024-03-23T03:40:20;2.57;;;1.47;;
58992;SDS011;44782;0.000;0.000;2024-03-23T03:42:35;2.67;;;1.57;;
58992;SDS011;44782;0.000;0.000;2024-03-23T03:44:51;2.53;;;1.80;;
58992;SDS011;44782;0.000;0.000;2024-03-23T03:47:08;1.97;;;1.57;;
58992;SDS011;44782;0.000;0.000;2024-03-23T03:49:24;2.80;;;1.77;;
58992;SDS011;44782;0.000;0.000;2024-03-23T03:51:40;2.40;;;1.70;;
58992;SDS011;44782;0.000;0.000;2024-03-23T03:53:55;2.00;;;1.50;;
58992;SDS011;44782;0.000;0.000;2024-03-23T03:56:11;2.00;;;1.50;;
58992;SDS011;44782;0.000;0.000;2024-03-23T03:58:27;2.73;;;1.80;;
58992;SDS011;44782;0.000;0.000;2024-03-23T04:00:43;1.77;;;1.50;;
58992;SDS011;44782;0.000;0.000;2024-03-23T04:02:58;2.93;;;1.90;;
58992;SDS011;44782;0.000;0.000;2024-03-23T04:05:14;2.10;;;1.40;;
58992;SDS011;44782;0.000;0.000;2024-03-23T04:07:30;1.90;;;1.60;;
58992;SDS011;44782;0.000;0.000;2024-03-23T04:09:45;2.20;;;1.53;;
58992;SDS011;44782;0.000;0.000;2024-03-23T04:12:01;2.70;;;1.70;;
58992;SDS011;44782;0.000;0.000;2024-03-23T04:14:17;2.63;;;1.57;;
58992;SDS011;44782;0.000;0.000;2024-03-23T04:16:35;2.37;;;1.77;;
58992;SDS011;44782;0.000;0.000;2024-03-23T04:18:51;3.47;;;1.67;;
58992;SDS011;44782;0.000;0.000;2024-03-23T04:21:07;2.63;;;1.73;;
58992;SDS011;44782;0.000;0.000;2024-03-23T04:23:22;3.03;;;1.93;;
58992;SDS011;44782;0.000;0.000;2024-03-23T04:25:38;2.87;;;1.80;;
58992;SDS011;44782;0.000;0.000;2024-03-23T04:27:53;1.80;;;1.50;;
58992;SDS011;44782;0.000;0.000;2024-03-23T04:30:09;2.90;;;1.80;;
58992;SDS011;44782;0.000;0.000;2024-03-23T04:32:27;1.73;;;1.40;;
58992;SDS011;44782;0.000;0.000;2024-03-23T04:34:43;2.63;;;1.60;;
58992;SDS011;44782;0.000;0.000;2024-03-23T04:36:59;2.17;;;1.60;;
58992;SDS011;44782;0.000;0.000;2024-03-23T04:39:15;2.50;;;1.70;;
58992;SDS011;44782;0.000;0.000;2024-03-23T04:41:30;2.40;;;1.67;;
58992;SDS011;44782;0.000;0.000;2024-03-23T04:43:46;2.73;;;1.67;;
58992;SDS011;44782;0.000;0.000;2024-03-23T04:46:02;2.17;;;1.70;;
58992;SDS011;44782;0.000;0.000;2024-03-23T04:48:20;2.70;;;1.80;;
58992;SDS011;44782;0.000;0.000;2024-03-23T04:50:37;2.60;;;1.80;;
58992;SDS011;44782;0.000;0.000;2024-03-23T04:52:52;1.93;;;1.60;;
58992;SDS011;44782;0.000;0.000;2024-03-23T04:55:08;2.73;;;1.70;;
58992;SDS011;44782;0.000;0.000;2024-03-23T04:57:24;2.70;;;1.77;;
58992;SDS011;44782;0.000;0.000;2024-03-23T04:59:39;1.93;;;1.57;;
58992;SDS011;44782;0.000;0.000;2024-03-23T05:01:55;2.27;;;1.50;;
58992;SDS011;44782;0.000;0.000;2024-03-23T05:04:11;2.07;;;1.53;;
58992;SDS011;44782;0.000;0.000;2024-03-23T05:06:26;2.00;;;1.70;;
58992;SDS011;44782;0.000;0.000;2024-03-23T05:08:42;2.40;;;1.70;;
58992;SDS011;44782;0.000;0.000;2024-03-23T05:10:58;2.07;;;1.70;;
58992;SDS011;44782;0.000;0.000;2024-03-23T05:13:13;2.03;;;1.70;;
58992;SDS011;44782;0.000;0.000;2024-03-23T05:15:29;2.50;;;1.50;;
58992;SDS011;44782;0.000;0.000;2024-03-23T05:17:45;1.60;;;1.50;;
58992;SDS011;44782;0.000;0.000;2024-03-23T05:20:00;2.63;;;1.60;;
58992;SDS011;44782;0.000;0.000;2024-03-23T05:22:16;2.23;;;1.60;;
58992;SDS011;44782;0.000;0.000;2024-03-23T05:24:32;2.63;;;1.93;;
58992;SDS011;44782;0.000;0.000;2024-03-23T05:26:47;2.37;;;1.80;;
58992;SDS011;44782;0.000;0.000;2024-03-23T05:29:03;2.73;;;1.80;;
58992;SDS011;44782;0.000;0.000;2024-03-23T05:31:28;2.73;;;1.80;;
58992;SDS011;44782;0.000;0.000;2024-03-23T05:33:45;2.13;;;1.50;;
58992;SDS011;44782;0.000;0.000;2024-03-23T05:36:03;2.40;;;1.70;;
58992;SDS011;44782;0.000;0.000;2024-03-23T05:38:19;2.23;;;1.70;;
58992;SDS011;44782;0.000;0.000;2024-03-23T05:40:35;2.10;;;1.50;;
58992;SDS011;44782;0.000;0.000;2024-03-23T05:42:52;2.57;;;1.60;;
58992;SDS011;44782;0.000;0.000;2024-03-23T05:45:08;2.50;;;1.50;;
58992;SDS011;44782;0.000;0.000;2024-03-23T05:47:23;2.57;;;1.60;;
58992;SDS011;44782;0.000;0.000;2024-03-23T05:49:39;2.53;;;1.50;;
58992;SDS011;44782;0.000;0.000;2024-03-23T05:51:56;2.60;;;1.70;;
58992;SDS011;44782;0.000;0.000;2024-03-23T05:54:12;2.43;;;1.70;;
58992;SDS011;44782;0.000;0.000;2024-03-23T05:56:27;2.07;;;1.40;;
58992;SDS011;44782;0.000;0.000;2024-03-23T05:58:43;2.10;;;1.60;;
58992;SDS011;44782;0.000;0.000;2024-03-23T06:00:59;1.90;;;1.50;;
58992;SDS011;44782;0.000;0.000;2024-03-23T06:03:16;1.97;;;1.70;;
58992;SDS011;44782;0.000;0.000;2024-03-23T06:05:32;1.90;;;1.60;;
58992;SDS011;44782;0.000;0.000;2024-03-23T06:07:47;2.07;;;1.60;;
58992;SDS011;44782;0.000;0.000;2024-03-23T06:10:05;1.50;;;1.33;;
58992;SDS011;44782;0.000;0.000;2024-03-23T06:12:21;2.03;;;1.60;;
58992;SDS011;44782;0.000;0.000;2024-03-23T06:14:37;1.77;;;1.60;;
58992;SDS011;44782;0.000;0.000;2024-03-23T06:16:52;2.07;;;1.60;;
58992;SDS011;44782;0.000;0.000;2024-03-23T06:19:08;1.70;;;1.37;;
58992;SDS011;44782;0.000;0.000;2024-03-23T06:21:24;1.90;;;1.57;;
58992;SDS011;44782;0.000;0.000;2024-03-23T06:23:41;1.47;;;1.37;;
58992;SDS011;44782;0.000;0.000;2024-03-23T06:25:57;1.60;;;1.30;;
58992;SDS011;44782;0.000;0.000;2024-03-23T06:28:13;1.80;;;1.30;;
58992;SDS011;44782;0.000;0.000;2024-03-23T06:30:29;2.40;;;1.40;;
58992;SDS011;44782;0.000;0.000;2024-03-23T06:32:46;1.83;;;1.40;;
58992;SDS011;44782;0.000;0.000;2024-03-23T06:35:02;1.63;;;1.30;;
58992;SDS011;44782;0.000;0.000;2024-03-23T06:37:23;2.00;;;1.40;;
58992;SDS011;44782;0.000;0.000;2024-03-23T06:39:38;1.57;;;1.40;;
58992;SDS011;44782;0.000;0.000;2024-03-23T06:41:54;1.87;;;1.50;;
58992;SDS011;44782;0.000;0.000;2024-03-23T06:44:10;1.57;;;1.47;;
58992;SDS011;44782;0.000;0.000;2024-03-23T06:46:25;2.30;;;1.57;;
58992;SDS011;44782;0.000;0.000;2024-03-23T06:48:41;1.60;;;1.37;;
58992;SDS011;44782;0.000;0.000;2024-03-23T06:50:57;1.73;;;1.50;;
58992;SDS011;44782;0.000;0.000;2024-03-23T06:53:13;2.10;;;1.50;;
58992;SDS011;44782;0.000;0.000;2024-03-23T06:55:30;1.80;;;1.30;;
58992;SDS011;44782;0.000;0.000;2024-03-23T06:57:45;1.75;;;1.48;;
58992;SDS011;44782;0.000;0.000;2024-03-23T07:00:01;1.50;;;1.40;;
58992;SDS011;44782;0.000;0.000;2024-03-23T07:02:17;2.10;;;1.50;;
58992;SDS011;44782;0.000;0.000;2024-03-23T07:04:33;1.65;;;1.50;;
58992;SDS011;44782;0.000;0.000;2024-03-23T07:06:48;1.88;;;1.40;;
58992;SDS011;44782;0.000;0.000;2024-03-23T07:09:04;2.08;;;1.60;;
58992;SDS011;44782;0.000;0.000;2024-03-23T07:11:20;1.77;;;1.60;;
58992;SDS011;44782;0.000;0.000;2024-03-23T07:13:36;1.25;;;1.15;;
58992;SDS011;44782;0.000;0.000;2024-03-23T07:15:52;2.03;;;1.50;;
58992;SDS011;44782;0.000;0.000;2024-03-23T07:18:10;1.50;;;1.40;;
58992;SDS011;44782;0.000;0.000;2024-03-23T07:20:25;1.50;;;1.40;;
58992;SDS011;44782;0.000;0.000;2024-03-23T07:22:42;1.60;;;1.40;;
58992;SDS011;44782;0.000;0.000;2024-03-23T07:25:00;1.63;;;1.43;;
58992;SDS011;44782;0.000;0.000;2024-03-23T07:27:16;2.25;;;1.20;;
58992;SDS011;44782;0.000;0.000;2024-03-23T07:29:31;1.42;;;1.30;;
58992;SDS011;44782;0.000;0.000;2024-03-23T07:31:47;1.30;;;1.20;;
58992;SDS011;44782;0.000;0.000;2024-03-23T07:34:03;1.50;;;1.40;;
58992;SDS011;44782;0.000;0.000;2024-03-23T07:36:18;1.77;;;1.40;;
58992;SDS011;44782;0.000;0.000;2024-03-23T07:38:35;1.40;;;1.30;;
58992;SDS011;44782;0.000;0.000;2024-03-23T07:40:50;2.08;;;1.63;;
58992;SDS011;44782;0.000;0.000;2024-03-23T07:43:10;1.63;;;1.40;;
58992;SDS011;44782;0.000;0.000;2024-03-23T07:45:26;1.75;;;1.40;;
58992;SDS011;44782;0.000;0.000;2024-03-23T07:47:42;1.60;;;1.50;;
58992;SDS011;44782;0.000;0.000;2024-03-23T07:49:57;2.65;;;1.42;;
58992;SDS011;44782;0.000;0.000;2024-03-23T07:52:14;1.42;;;1.30;;
58992;SDS011;44782;0.000;0.000;2024-03-23T07:54:29;1.45;;;1.30;;
58992;SDS011;44782;0.000;0.000;2024-03-23T07:56:45;2.80;;;1.48;;
58992;SDS011;44782;0.000;0.000;2024-03-23T07:59:01;2.45;;;1.40;;
58992;SDS011;44782;0.000;0.000;2024-03-23T08:01:18;1.52;;;1.38;;
58992;SDS011;44782;0.000;0.000;2024-03-23T08:03:34;1.75;;;1.33;;
58992;SDS011;44782;0.000;0.000;2024-03-23T08:05:54;4.07;;;1.40;;
58992;SDS011;44782;0.000;0.000;2024-03-23T08:08:10;2.92;;;1.40;;
58992;SDS011;44782;0.000;0.000;2024-03-23T08:10:26;2.08;;;1.77;;
58992;SDS011;44782;0.000;0.000;2024-03-23T08:12:41;3.35;;;1.70;;
58992;SDS011;44782;0.000;0.000;2024-03-23T08:14:57;2.42;;;1.60;;
58992;SDS011;44782;0.000;0.000;2024-03-23T08:17:13;1.52;;;1.42;;
58992;SDS011;44782;0.000;0.000;2024-03-23T08:19:28;3.72;;;1.52;;
58992;SDS011;44782;0.000;0.000;2024-03-23T08:21:44;1.60;;;1.50;;
58992;SDS011;44782;0.000;0.000;2024-03-23T08:24:00;1.90;;;1.52;;
58992;SDS011;44782;0.000;0.000;2024-03-23T08:26:15;2.17;;;1.50;;
58992;SDS011;44782;0.000;0.000;2024-03-23T08:28:32;1.77;;;1.50;;
58992;SDS011;44782;0.000;0.000;2024-03-23T08:30:48;2.17;;;1.50;;
58992;SDS011;44782;0.000;0.000;2024-03-23T08:33:04;1.43;;;1.30;;
58992;SDS011;44782;0.000;0.000;2024-03-23T08:35:20;2.20;;;1.53;;
58992;SDS011;44782;0.000;0.000;2024-03-23T08:37:36;1.70;;;1.50;;
58992;SDS011;44782;0.000;0.000;2024-03-23T08:39:51;1.30;;;1.20;;
58992;SDS011;44782;0.000;0.000;2024-03-23T08:42:08;1.53;;;1.33;;
58992;SDS011;44782;0.000;0.000;2024-03-23T08:44:24;1.63;;;1.43;;
58992;SDS011;44782;0.000;0.000;2024-03-23T08:46:39;1.60;;;1.37;;
58992;SDS011;44782;0.000;0.000;2024-03-23T08:48:55;1.40;;;1.30;;
58992;SDS011;44782;0.000;0.000;2024-03-23T08:51:12;1.90;;;1.50;;
58992;SDS011;44782;0.000;0.000;2024-03-23T08:53:37;3.17;;;1.50;;
58992;SDS011;44782;0.000;0.000;2024-03-23T08:56:00;2.22;;;1.35;;
58992;SDS011;44782;0.000;0.000;2024-03-23T08:58:17;2.73;;;1.33;;
58992;SDS011;44782;0.000;0.000;2024-03-23T09:00:35;2.80;;;1.60;;
58992;SDS011;44782;0.000;0.000;2024-03-23T09:02:50;2.20;;;1.60;;
58992;SDS011;44782;0.000;0.000;2024-03-23T09:05:06;1.70;;;1.43;;
58992;SDS011;44782;0.000;0.000;2024-03-23T09:07:22;1.73;;;1.40;;
58992;SDS011;44782;0.000;0.000;2024-03-23T09:09:38;1.85;;;1.50;;
58992;SDS011;44782;0.000;0.000;2024-03-23T09:11:54;1.97;;;1.60;;
58992;SDS011;44782;0.000;0.000;2024-03-23T09:14:11;2.43;;;1.60;;
58992;SDS011;44782;0.000;0.000;2024-03-23T09:16:26;1.50;;;1.40;;
58992;SDS011;44782;0.000;0.000;2024-03-23T09:18:42;2.13;;;1.40;;
58992;SDS011;44782;0.000;0.000;2024-03-23T09:20:57;4.27;;;1.60;;
58992;SDS011;44782;0.000;0.000;2024-03-23T09:23:13;1.30;;;1.20;;
58992;SDS011;44782;0.000;0.000;2024-03-23T09:25:29;1.50;;;1.40;;
58992;SDS011;44782;0.000;0.000;2024-03-23T09:27:47;1.60;;;1.30;;
58992;SDS011;44782;0.000;0.000;2024-03-23T09:30:04;1.67;;;1.50;;
58992;SDS011;44782;0.000;0.000;2024-03-23T09:32:20;2.17;;;1.70;;
58992;SDS011;44782;0.000;0.000;2024-03-23T09:34:36;3.03;;;1.50;;
58992;SDS011;44782;0.000;0.000;2024-03-23T09:36:52;2.80;;;1.47;;
58992;SDS011;44782;0.000;0.000;2024-03-23T09:39:07;1.70;;;1.40;;
58992;SDS011;44782;0.000;0.000;2024-03-23T09:41:24;1.30;;;1.20;;
58992;SDS011;44782;0.000;0.000;2024-03-23T09:43:40;3.07;;;1.57;;
58992;SDS011;44782;0.000;0.000;2024-03-23T09:45:55;2.50;;;1.83;;
58992;SDS011;44782;0.000;0.000;2024-03-23T09:48:11;2.03;;;1.57;;
58992;SDS011;44782;0.000;0.000;2024-03-23T09:50:27;2.13;;;1.63;;
58992;SDS011;44782;0.000;0.000;2024-03-23T09:52:45;2.50;;;1.77;;
58992;SDS011;44782;0.000;0.000;2024-03-23T09:55:01;2.17;;;1.77;;
58992;SDS011;44782;0.000;0.000;2024-03-23T09:57:18;7.03;;;2.60;;
58992;SDS011;44782;0.000;0.000;2024-03-23T09:59:34;3.20;;;2.10;;
58992;SDS011;44782;0.000;0.000;2024-03-23T10:01:50;3.83;;;1.90;;
58992;SDS011;44782;0.000;0.000;2024-03-23T10:04:05;4.37;;;2.33;;
58992;SDS011;44782;0.000;0.000;2024-03-23T10:06:22;4.00;;;2.20;;
58992;SDS011;44782;0.000;0.000;2024-03-23T10:08:39;5.47;;;2.30;;
58992;SDS011;44782;0.000;0.000;2024-03-23T10:10:55;4.57;;;2.13;;
58992;SDS011;44782;0.000;0.000;2024-03-23T10:13:11;4.30;;;2.20;;
58992;SDS011;44782;0.000;0.000;2024-03-23T10:15:48;3.30;;;1.83;;
58992;SDS011;44782;0.000;0.000;2024-03-23T10:18:19;6.00;;;2.10;;
58992;SDS011;44782;0.000;0.000;2024-03-23T10:20:36;3.40;;;2.27;;
58992;SDS011;44782;0.000;0.000;2024-03-23T10:22:52;4.50;;;1.80;;
58992;SDS011;44782;0.000;0.000;2024-03-23T10:25:08;3.40;;;1.93;;
58992;SDS011;44782;0.000;0.000;2024-03-23T10:27:24;4.50;;;2.13;;
58992;SDS011;44782;0.000;0.000;2024-03-23T10:29:40;4.00;;;2.00;;
58992;SDS011;44782;0.000;0.000;2024-03-23T10:32:07;3.10;;;1.97;;
58992;SDS011;44782;0.000;0.000;2024-03-23T10:34:26;3.27;;;2.00;;
58992;SDS011;44782;0.000;0.000;2024-03-23T10:36:41;3.17;;;2.03;;
58992;SDS011;44782;0.000;0.000;2024-03-23T10:38:58;2.60;;;1.90;;
58992;SDS011;44782;0.000;0.000;2024-03-23T10:41:14;3.27;;;1.90;;
58992;SDS011;44782;0.000;0.000;2024-03-23T10:43:31;3.77;;;2.00;;
58992;SDS011;44782;0.000;0.000;2024-03-23T10:45:49;3.87;;;1.90;;
58992;SDS011;44782;0.000;0.000;2024-03-23T10:48:05;4.60;;;1.87;;
58992;SDS011;44782;0.000;0.000;2024-03-23T10:50:22;3.20;;;1.90;;
58992;SDS011;44782;0.000;0.000;2024-03-23T10:52:38;2.83;;;1.80;;
58992;SDS011;44782;0.000;0.000;2024-03-23T10:54:57;3.13;;;1.80;;
58992;SDS011;44782;0.000;0.000;2024-03-23T10:57:14;3.23;;;1.80;;
58992;SDS011;44782;0.000;0.000;2024-03-23T10:59:34;3.47;;;1.60;;
58992;SDS011;44782;0.000;0.000;2024-03-23T11:01:59;3.47;;;1.70;;
58992;SDS011;44782;0.000;0.000;2024-03-23T11:04:29;3.10;;;1.93;;
58992;SDS011;44782;0.000;0.000;2024-03-23T11:06:46;4.57;;;1.90;;
58992;SDS011;44782;0.000;0.000;2024-03-23T11:09:01;3.53;;;1.80;;
58992;SDS011;44782;0.000;0.000;2024-03-23T11:11:18;2.80;;;1.70;;
58992;SDS011;44782;0.000;0.000;2024-03-23T11:13:35;3.07;;;1.67;;
58992;SDS011;44782;0.000;0.000;2024-03-23T11:15:53;3.77;;;1.60;;
58992;SDS011;44782;0.000;0.000;2024-03-23T11:18:09;3.00;;;1.70;;
58992;SDS011;44782;0.000;0.000;2024-03-23T11:20:30;2.27;;;1.53;;
58992;SDS011;44782;0.000;0.000;2024-03-23T11:22:47;1.60;;;1.50;;
58992;SDS011;44782;0.000;0.000;2024-03-23T11:25:13;3.07;;;2.00;;
58992;SDS011;44782;0.000;0.000;2024-03-23T11:27:30;3.17;;;1.70;;
58992;SDS011;44782;0.000;0.000;2024-03-23T11:29:45;3.87;;;1.70;;
58992;SDS011;44782;0.000;0.000;2024-03-23T11:32:01;2.57;;;1.70;;
58992;SDS011;44782;0.000;0.000;2024-03-23T11:34:21;2.63;;;1.60;;
58992;SDS011;44782;0.000;0.000;2024-03-23T11:36:37;2.83;;;1.70;;
58992;SDS011;44782;0.000;0.000;2024-03-23T11:38:52;3.57;;;1.53;;
58992;SDS011;44782;0.000;0.000;2024-03-23T11:41:08;2.50;;;1.50;;
58992;SDS011;44782;0.000;0.000;2024-03-23T11:43:25;4.53;;;1.63;;
58992;SDS011;44782;0.000;0.000;2024-03-23T11:45:42;2.10;;;1.50;;
58992;SDS011;44782;0.000;0.000;2024-03-23T11:48:02;4.17;;;1.40;;
58992;SDS011;44782;0.000;0.000;2024-03-23T11:50:21;1.53;;;1.40;;
58992;SDS011;44782;0.000;0.000;2024-03-23T11:52:37;2.40;;;1.60;;
58992;SDS011;44782;0.000;0.000;2024-03-23T11:55:02;3.73;;;1.70;;
58992;SDS011;44782;0.000;0.000;2024-03-23T11:57:18;3.47;;;1.73;;
58992;SDS011;44782;0.000;0.000;2024-03-23T11:59:38;3.93;;;1.50;;
58992;SDS011;44782;0.000;0.000;2024-03-23T12:01:57;2.57;;;1.40;;
58992;SDS011;44782;0.000;0.000;2024-03-23T12:04:24;2.63;;;1.50;;
58992;SDS011;44782;0.000;0.000;2024-03-23T12:06:43;3.83;;;1.70;;
58992;SDS011;44782;0.000;0.000;2024-03-23T12:09:05;2.07;;;1.70;;
58992;SDS011;44782;0.000;0.000;2024-03-23T12:11:21;4.07;;;1.90;;
58992;SDS011;44782;0.000;0.000;2024-03-23T12:13:37;1.67;;;1.50;;
58992;SDS011;44782;0.000;0.000;2024-03-23T12:15:54;2.57;;;1.73;;
58992;SDS011;44782;0.000;0.000;2024-03-23T12:18:09;1.50;;;1.40;;
58992;SDS011;44782;0.000;0.000;2024-03-23T12:20:25;1.63;;;1.40;;
58992;SDS011;44782;0.000;0.000;2024-03-23T12:22:41;4.27;;;2.40;;
58992;SDS011;44782;0.000;0.000;2024-03-23T12:24:56;8.10;;;3.73;;
58992;SDS011;44782;0.000;0.000;2024-03-23T12:27:12;7.67;;;4.57;;
58992;SDS011;44782;0.000;0.000;2024-03-23T12:29:31;6.07;;;3.70;;
58992;SDS011;44782;0.000;0.000;2024-03-23T12:31:47;7.67;;;5.00;;
58992;SDS011;44782;0.000;0.000;2024-03-23T12:34:02;9.27;;;5.53;;
58992;SDS011;44782;0.000;0.000;2024-03-23T12:36:18;9.10;;;5.40;;
58992;SDS011;44782;0.000;0.000;2024-03-23T12:38:34;11.17;;;6.40;;
58992;SDS011;44782;0.000;0.000;2024-03-23T12:40:49;10.50;;;6.17;;
58992;SDS011;44782;0.000;0.000;2024-03-23T12:43:05;11.80;;;6.30;;
58992;SDS011;44782;0.000;0.000;2024-03-23T12:45:22;11.50;;;6.27;;
58992;SDS011;44782;0.000;0.000;2024-03-23T12:47:38;13.70;;;6.47;;
58992;SDS011;44782;0.000;0.000;2024-03-23T12:49:53;11.37;;;6.83;;
58992;SDS011;44782;0.000;0.000;2024-03-23T12:52:09;11.57;;;6.53;;
58992;SDS011;44782;0.000;0.000;2024-03-23T12:54:25;11.23;;;6.90;;
58992;SDS011;44782;0.000;0.000;2024-03-23T12:56:41;12.87;;;6.67;;
58992;SDS011;44782;0.000;0.000;2024-03-23T12:58:56;11.30;;;6.77;;
58992;SDS011;44782;0.000;0.000;2024-03-23T13:01:12;12.03;;;7.23;;
58992;SDS011;44782;0.000;0.000;2024-03-23T13:03:28;10.73;;;6.67;;
58992;SDS011;44782;0.000;0.000;2024-03-23T13:05:43;11.10;;;6.70;;
58992;SDS011;44782;0.000;0.000;2024-03-23T13:08:06;11.77;;;6.40;;
58992;SDS011;44782;0.000;0.000;2024-03-23T13:10:22;10.67;;;6.37;;
58992;SDS011;44782;0.000;0.000;2024-03-23T13:12:38;9.87;;;6.43;;
58992;SDS011;44782;0.000;0.000;2024-03-23T13:14:54;12.23;;;6.63;;
58992;SDS011;44782;0.000;0.000;2024-03-23T13:17:10;10.40;;;6.67;;
58992;SDS011;44782;0.000;0.000;2024-03-23T13:19:26;9.03;;;6.10;;
58992;SDS011;44782;0.000;0.000;2024-03-23T13:21:42;10.67;;;6.70;;
58992;SDS011;44782;0.000;0.000;2024-03-23T13:23:58;12.50;;;6.50;;
58992;SDS011;44782;0.000;0.000;2024-03-23T13:26:14;14.27;;;6.80;;
58992;SDS011;44782;0.000;0.000;2024-03-23T13:28:29;9.57;;;6.17;;
58992;SDS011;44782;0.000;0.000;2024-03-23T13:30:55;11.97;;;6.20;;
58992;SDS011;44782;0.000;0.000;2024-03-23T13:33:12;9.60;;;6.10;;
58992;SDS011;44782;0.000;0.000;2024-03-23T13:35:28;9.93;;;5.67;;
58992;SDS011;44782;0.000;0.000;2024-03-23T13:37:44;13.40;;;6.13;;
58992;SDS011;44782;0.000;0.000;2024-03-23T13:39:59;10.20;;;5.47;;
58992;SDS011;44782;0.000;0.000;2024-03-23T13:42:15;11.03;;;6.37;;
58992;SDS011;44782;0.000;0.000;2024-03-23T13:44:31;11.43;;;5.97;;
58992;SDS011;44782;0.000;0.000;2024-03-23T13:46:47;9.27;;;5.83;;
58992;SDS011;44782;0.000;0.000;2024-03-23T13:49:03;9.63;;;5.60;;
58992;SDS011;44782;0.000;0.000;2024-03-23T13:51:22;8.83;;;5.50;;
58992;SDS011;44782;0.000;0.000;2024-03-23T13:53:39;9.13;;;5.53;;
58992;SDS011;44782;0.000;0.000;2024-03-23T13:55:55;9.17;;;5.50;;
58992;SDS011;44782;0.000;0.000;2024-03-23T13:58:10;10.73;;;5.33;;
58992;SDS011;44782;0.000;0.000;2024-03-23T14:00:27;10.30;;;5.93;;
58992;SDS011;44782;0.000;0.000;2024-03-23T14:02:43;9.53;;;5.37;;
58992;SDS011;44782;0.000;0.000;2024-03-23T14:04:58;7.73;;;5.23;;
58992;SDS011;44782;0.000;0.000;2024-03-23T14:07:17;10.80;;;6.27;;
58992;SDS011;44782;0.000;0.000;2024-03-23T14:09:33;8.90;;;5.53;;
58992;SDS011;44782;0.000;0.000;2024-03-23T14:11:48;8.23;;;5.13;;
58992;SDS011;44782;0.000;0.000;2024-03-23T14:14:04;6.50;;;4.90;;
58992;SDS011;44782;0.000;0.000;2024-03-23T14:16:20;7.63;;;5.17;;
58992;SDS011;44782;0.000;0.000;2024-03-23T14:18:35;10.53;;;5.73;;
58992;SDS011;44782;0.000;0.000;2024-03-23T14:20:51;8.20;;;5.07;;
58992;SDS011;44782;0.000;0.000;2024-03-23T14:23:12;7.03;;;4.57;;
58992;SDS011;44782;0.000;0.000;2024-03-23T14:25:27;7.83;;;4.90;;
58992;SDS011;44782;0.000;0.000;2024-03-23T14:27:44;5.87;;;4.60;;
58992;SDS011;44782;0.000;0.000;2024-03-23T14:30:00;8.83;;;5.20;;
58992;SDS011;44782;0.000;0.000;2024-03-23T14:32:16;7.70;;;5.17;;
58992;SDS011;44782;0.000;0.000;2024-03-23T14:34:32;7.93;;;4.80;;
58992;SDS011;44782;0.000;0.000;2024-03-23T14:36:47;8.17;;;4.77;;
58992;SDS011;44782;0.000;0.000;2024-03-23T14:39:03;6.77;;;4.57;;
58992;SDS011;44782;0.000;0.000;2024-03-23T14:41:19;6.27;;;4.70;;
58992;SDS011;44782;0.000;0.000;2024-03-23T14:43:34;7.27;;;4.40;;
58992;SDS011;44782;0.000;0.000;2024-03-23T14:48:27;7.43;;;4.40;;
58992;SDS011;44782;0.000;0.000;2024-03-23T14:50:43;8.37;;;4.60;;
58992;SDS011;44782;0.000;0.000;2024-03-23T14:52:59;6.90;;;4.30;;
58992;SDS011;44782;0.000;0.000;2024-03-23T14:55:14;7.27;;;4.30;;